sensor_id;sensor_type;location;lat;lon;timestamp;P1;durP1;ratioP1;P2;durP2;ratioP2
14203;SDS011;7185;51.854;6.622;2022-12-18T00:01:13;73.03;;;29.90;;
14203;SDS011;7185;51.854;6.622;2022-12-18T00:03:46;82.97;;;28.85;;
14203;SDS011;7185;51.854;6.622;2022-12-18T00:06:18;69.38;;;26.80;;
14203;SDS011;7185;51.854;6.622;2022-12-18T00:08:52;75.03;;;28.08;;
14203;SDS011;7185;51.854;6.622;2022-12-18T00:11:25;78.45;;;28.88;;
14203;SDS011;7185;51.854;6.622;2022-12-18T00:13:58;74.13;;;28.38;;
14203;SDS011;7185;51.854;6.622;2022-12-18T00:16:31;81.72;;;30.02;;
14203;SDS011;7185;51.854;6.622;2022-12-18T00:19:05;70.00;;;27.67;;
14203;SDS011;7185;51.854;6.622;2022-12-18T00:21:40;76.28;;;28.27;;
14203;SDS011;7185;51.854;6.622;2022-12-18T00:24:13;76.63;;;26.92;;
14203;SDS011;7185;51.854;6.622;2022-12-18T00:26:47;67.00;;;27.15;;
14203;SDS011;7185;51.854;6.622;2022-12-18T00:29:18;69.15;;;25.35;;
14203;SDS011;7185;51.854;6.622;2022-12-18T00:31:50;71.85;;;28.20;;
14203;SDS011;7185;51.854;6.622;2022-12-18T00:34:21;72.82;;;27.23;;
14203;SDS011;7185;51.854;6.622;2022-12-18T00:36:53;72.88;;;26.98;;
14203;SDS011;7185;51.854;6.622;2022-12-18T00:39:26;72.05;;;26.10;;
14203;SDS011;7185;51.854;6.622;2022-12-18T00:41:58;70.85;;;27.27;;
14203;SDS011;7185;51.854;6.622;2022-12-18T00:44:47;72.15;;;27.40;;
14203;SDS011;7185;51.854;6.622;2022-12-18T00:47:18;70.03;;;27.45;;
14203;SDS011;7185;51.854;6.622;2022-12-18T00:49:50;76.88;;;26.48;;
14203;SDS011;7185;51.854;6.622;2022-12-18T00:52:22;86.10;;;27.95;;
14203;SDS011;7185;51.854;6.622;2022-12-18T00:54:54;75.47;;;26.60;;
14203;SDS011;7185;51.854;6.622;2022-12-18T00:57:26;73.25;;;25.80;;
14203;SDS011;7185;51.854;6.622;2022-12-18T00:59:57;75.07;;;26.88;;
14203;SDS011;7185;51.854;6.622;2022-12-18T01:02:29;65.63;;;25.45;;
14203;SDS011;7185;51.854;6.622;2022-12-18T01:05:00;61.80;;;25.35;;
14203;SDS011;7185;51.854;6.622;2022-12-18T01:07:32;65.35;;;24.45;;
14203;SDS011;7185;51.854;6.622;2022-12-18T01:10:06;59.58;;;24.08;;
14203;SDS011;7185;51.854;6.622;2022-12-18T01:12:39;60.70;;;24.17;;
14203;SDS011;7185;51.854;6.622;2022-12-18T01:15:12;71.60;;;26.52;;
14203;SDS011;7185;51.854;6.622;2022-12-18T01:17:44;72.53;;;24.88;;
14203;SDS011;7185;51.854;6.622;2022-12-18T01:20:16;69.53;;;24.95;;
14203;SDS011;7185;51.854;6.622;2022-12-18T01:22:47;60.63;;;23.88;;
14203;SDS011;7185;51.854;6.622;2022-12-18T01:25:20;66.85;;;27.00;;
14203;SDS011;7185;51.854;6.622;2022-12-18T01:27:52;73.43;;;25.83;;
14203;SDS011;7185;51.854;6.622;2022-12-18T01:30:23;61.70;;;22.25;;
14203;SDS011;7185;51.854;6.622;2022-12-18T01:32:55;70.38;;;25.30;;
14203;SDS011;7185;51.854;6.622;2022-12-18T01:35:27;71.05;;;25.17;;
14203;SDS011;7185;51.854;6.622;2022-12-18T01:37:59;65.47;;;23.73;;
14203;SDS011;7185;51.854;6.622;2022-12-18T01:40:32;70.22;;;26.00;;
14203;SDS011;7185;51.854;6.622;2022-12-18T01:43:03;66.22;;;24.67;;
14203;SDS011;7185;51.854;6.622;2022-12-18T01:45:35;56.42;;;23.00;;
14203;SDS011;7185;51.854;6.622;2022-12-18T01:48:06;68.68;;;24.42;;
14203;SDS011;7185;51.854;6.622;2022-12-18T01:50:41;68.35;;;24.60;;
14203;SDS011;7185;51.854;6.622;2022-12-18T01:53:15;61.53;;;23.50;;
14203;SDS011;7185;51.854;6.622;2022-12-18T01:55:51;62.58;;;24.52;;
14203;SDS011;7185;51.854;6.622;2022-12-18T01:58:27;68.57;;;25.75;;
14203;SDS011;7185;51.854;6.622;2022-12-18T02:01:03;73.13;;;26.42;;
14203;SDS011;7185;51.854;6.622;2022-12-18T02:03:35;61.45;;;24.48;;
14203;SDS011;7185;51.854;6.622;2022-12-18T02:06:08;65.28;;;23.35;;
14203;SDS011;7185;51.854;6.622;2022-12-18T02:08:47;65.97;;;25.25;;
14203;SDS011;7185;51.854;6.622;2022-12-18T02:11:31;62.03;;;24.73;;
14203;SDS011;7185;51.854;6.622;2022-12-18T02:14:16;66.53;;;23.85;;
14203;SDS011;7185;51.854;6.622;2022-12-18T02:17:03;68.80;;;23.35;;
14203;SDS011;7185;51.854;6.622;2022-12-18T02:19:44;68.90;;;25.05;;
14203;SDS011;7185;51.854;6.622;2022-12-18T02:22:27;61.80;;;25.63;;
14203;SDS011;7185;51.854;6.622;2022-12-18T02:25:07;63.50;;;23.55;;
14203;SDS011;7185;51.854;6.622;2022-12-18T02:27:51;69.28;;;25.73;;
14203;SDS011;7185;51.854;6.622;2022-12-18T02:30:24;67.63;;;25.23;;
14203;SDS011;7185;51.854;6.622;2022-12-18T02:33:00;61.83;;;24.95;;
14203;SDS011;7185;51.854;6.622;2022-12-18T02:35:36;67.82;;;24.17;;
14203;SDS011;7185;51.854;6.622;2022-12-18T02:38:09;61.85;;;24.02;;
14203;SDS011;7185;51.854;6.622;2022-12-18T02:40:43;65.20;;;23.45;;
14203;SDS011;7185;51.854;6.622;2022-12-18T02:43:17;61.17;;;25.13;;
14203;SDS011;7185;51.854;6.622;2022-12-18T02:45:50;66.82;;;25.27;;
14203;SDS011;7185;51.854;6.622;2022-12-18T02:48:25;64.53;;;24.52;;
14203;SDS011;7185;51.854;6.622;2022-12-18T02:51:02;61.88;;;23.10;;
14203;SDS011;7185;51.854;6.622;2022-12-18T02:53:40;60.58;;;24.02;;
14203;SDS011;7185;51.854;6.622;2022-12-18T02:56:17;55.58;;;22.92;;
14203;SDS011;7185;51.854;6.622;2022-12-18T02:58:55;62.55;;;24.08;;
14203;SDS011;7185;51.854;6.622;2022-12-18T03:01:33;53.72;;;22.20;;
14203;SDS011;7185;51.854;6.622;2022-12-18T03:04:07;70.40;;;24.75;;
14203;SDS011;7185;51.854;6.622;2022-12-18T03:06:43;57.65;;;23.80;;
14203;SDS011;7185;51.854;6.622;2022-12-18T03:09:18;63.00;;;23.08;;
14203;SDS011;7185;51.854;6.622;2022-12-18T03:11:54;68.15;;;26.80;;
14203;SDS011;7185;51.854;6.622;2022-12-18T03:14:47;66.22;;;25.63;;
14203;SDS011;7185;51.854;6.622;2022-12-18T03:17:23;56.53;;;23.17;;
14203;SDS011;7185;51.854;6.622;2022-12-18T03:19:58;57.17;;;22.63;;
14203;SDS011;7185;51.854;6.622;2022-12-18T03:22:35;54.78;;;21.73;;
14203;SDS011;7185;51.854;6.622;2022-12-18T03:25:10;59.55;;;22.60;;
14203;SDS011;7185;51.854;6.622;2022-12-18T03:27:45;56.13;;;23.08;;
14203;SDS011;7185;51.854;6.622;2022-12-18T03:30:20;54.17;;;21.85;;
14203;SDS011;7185;51.854;6.622;2022-12-18T03:32:52;52.40;;;20.27;;
14203;SDS011;7185;51.854;6.622;2022-12-18T03:35:34;52.80;;;21.05;;
14203;SDS011;7185;51.854;6.622;2022-12-18T03:38:10;55.53;;;21.73;;
14203;SDS011;7185;51.854;6.622;2022-12-18T03:40:44;57.60;;;23.13;;
14203;SDS011;7185;51.854;6.622;2022-12-18T03:43:25;53.28;;;20.58;;
14203;SDS011;7185;51.854;6.622;2022-12-18T03:46:08;51.58;;;21.02;;
14203;SDS011;7185;51.854;6.622;2022-12-18T03:48:51;51.17;;;21.25;;
14203;SDS011;7185;51.854;6.622;2022-12-18T03:51:28;51.55;;;22.20;;
14203;SDS011;7185;51.854;6.622;2022-12-18T03:54:07;44.30;;;19.95;;
14203;SDS011;7185;51.854;6.622;2022-12-18T03:56:42;51.05;;;19.83;;
14203;SDS011;7185;51.854;6.622;2022-12-18T03:59:17;51.65;;;21.05;;
14203;SDS011;7185;51.854;6.622;2022-12-18T04:01:51;57.15;;;20.45;;
14203;SDS011;7185;51.854;6.622;2022-12-18T04:04:25;49.13;;;18.88;;
14203;SDS011;7185;51.854;6.622;2022-12-18T04:06:59;52.58;;;21.08;;
14203;SDS011;7185;51.854;6.622;2022-12-18T04:09:32;44.88;;;19.08;;
14203;SDS011;7185;51.854;6.622;2022-12-18T04:12:05;53.90;;;21.00;;
14203;SDS011;7185;51.854;6.622;2022-12-18T04:14:37;55.25;;;20.55;;
14203;SDS011;7185;51.854;6.622;2022-12-18T04:17:10;45.15;;;20.23;;
14203;SDS011;7185;51.854;6.622;2022-12-18T04:19:41;52.65;;;20.10;;
14203;SDS011;7185;51.854;6.622;2022-12-18T04:22:13;54.00;;;21.42;;
14203;SDS011;7185;51.854;6.622;2022-12-18T04:24:44;49.92;;;18.85;;
14203;SDS011;7185;51.854;6.622;2022-12-18T04:27:16;51.47;;;20.63;;
14203;SDS011;7185;51.854;6.622;2022-12-18T04:29:48;51.67;;;20.63;;
14203;SDS011;7185;51.854;6.622;2022-12-18T04:32:20;49.22;;;19.10;;
14203;SDS011;7185;51.854;6.622;2022-12-18T04:34:52;50.13;;;21.15;;
14203;SDS011;7185;51.854;6.622;2022-12-18T04:37:24;47.00;;;20.40;;
14203;SDS011;7185;51.854;6.622;2022-12-18T04:39:55;49.65;;;19.80;;
14203;SDS011;7185;51.854;6.622;2022-12-18T04:42:27;48.28;;;18.92;;
14203;SDS011;7185;51.854;6.622;2022-12-18T04:44:58;48.65;;;21.00;;
14203;SDS011;7185;51.854;6.622;2022-12-18T04:47:31;45.35;;;18.65;;
14203;SDS011;7185;51.854;6.622;2022-12-18T04:50:03;42.97;;;19.73;;
14203;SDS011;7185;51.854;6.622;2022-12-18T04:52:35;45.53;;;19.20;;
14203;SDS011;7185;51.854;6.622;2022-12-18T04:55:07;52.90;;;18.90;;
14203;SDS011;7185;51.854;6.622;2022-12-18T04:57:38;49.83;;;19.67;;
14203;SDS011;7185;51.854;6.622;2022-12-18T05:00:10;52.67;;;18.63;;
14203;SDS011;7185;51.854;6.622;2022-12-18T05:02:44;49.50;;;20.05;;
14203;SDS011;7185;51.854;6.622;2022-12-18T05:05:16;43.42;;;18.55;;
14203;SDS011;7185;51.854;6.622;2022-12-18T05:07:47;53.67;;;19.45;;
14203;SDS011;7185;51.854;6.622;2022-12-18T05:10:19;41.90;;;17.92;;
14203;SDS011;7185;51.854;6.622;2022-12-18T05:12:50;43.30;;;18.33;;
14203;SDS011;7185;51.854;6.622;2022-12-18T05:15:31;47.88;;;18.77;;
14203;SDS011;7185;51.854;6.622;2022-12-18T05:18:05;46.67;;;18.00;;
14203;SDS011;7185;51.854;6.622;2022-12-18T05:20:37;40.20;;;18.17;;
14203;SDS011;7185;51.854;6.622;2022-12-18T05:23:09;46.25;;;17.90;;
14203;SDS011;7185;51.854;6.622;2022-12-18T05:25:40;41.22;;;17.23;;
14203;SDS011;7185;51.854;6.622;2022-12-18T05:28:12;45.63;;;18.30;;
14203;SDS011;7185;51.854;6.622;2022-12-18T05:30:46;41.78;;;18.33;;
14203;SDS011;7185;51.854;6.622;2022-12-18T05:33:20;43.75;;;18.10;;
14203;SDS011;7185;51.854;6.622;2022-12-18T05:35:54;37.80;;;17.92;;
14203;SDS011;7185;51.854;6.622;2022-12-18T05:38:27;40.72;;;18.08;;
14203;SDS011;7185;51.854;6.622;2022-12-18T05:40:59;45.47;;;18.77;;
14203;SDS011;7185;51.854;6.622;2022-12-18T05:43:30;45.42;;;19.08;;
14203;SDS011;7185;51.854;6.622;2022-12-18T05:46:04;46.50;;;19.38;;
14203;SDS011;7185;51.854;6.622;2022-12-18T05:48:38;45.63;;;19.08;;
14203;SDS011;7185;51.854;6.622;2022-12-18T05:51:11;43.13;;;19.88;;
14203;SDS011;7185;51.854;6.622;2022-12-18T05:53:45;39.17;;;18.52;;
14203;SDS011;7185;51.854;6.622;2022-12-18T05:56:18;45.67;;;19.02;;
14203;SDS011;7185;51.854;6.622;2022-12-18T05:58:51;43.08;;;17.17;;
14203;SDS011;7185;51.854;6.622;2022-12-18T06:01:25;42.35;;;17.63;;
14203;SDS011;7185;51.854;6.622;2022-12-18T06:03:58;38.28;;;17.13;;
14203;SDS011;7185;51.854;6.622;2022-12-18T06:06:30;41.72;;;17.40;;
14203;SDS011;7185;51.854;6.622;2022-12-18T06:09:03;43.53;;;17.42;;
14203;SDS011;7185;51.854;6.622;2022-12-18T06:11:38;40.57;;;16.87;;
14203;SDS011;7185;51.854;6.622;2022-12-18T06:14:10;40.97;;;17.05;;
14203;SDS011;7185;51.854;6.622;2022-12-18T06:16:41;42.78;;;17.85;;
14203;SDS011;7185;51.854;6.622;2022-12-18T06:19:15;39.58;;;17.30;;
14203;SDS011;7185;51.854;6.622;2022-12-18T06:21:47;42.08;;;16.85;;
14203;SDS011;7185;51.854;6.622;2022-12-18T06:24:19;41.85;;;16.15;;
14203;SDS011;7185;51.854;6.622;2022-12-18T06:26:50;34.30;;;15.05;;
14203;SDS011;7185;51.854;6.622;2022-12-18T06:29:22;32.65;;;14.73;;
14203;SDS011;7185;51.854;6.622;2022-12-18T06:31:54;42.05;;;17.00;;
14203;SDS011;7185;51.854;6.622;2022-12-18T06:34:27;40.25;;;17.55;;
14203;SDS011;7185;51.854;6.622;2022-12-18T06:36:58;40.17;;;16.30;;
14203;SDS011;7185;51.854;6.622;2022-12-18T06:39:30;37.42;;;16.05;;
14203;SDS011;7185;51.854;6.622;2022-12-18T06:42:01;42.72;;;16.92;;
14203;SDS011;7185;51.854;6.622;2022-12-18T06:44:34;42.20;;;17.50;;
14203;SDS011;7185;51.854;6.622;2022-12-18T06:47:05;37.33;;;16.80;;
14203;SDS011;7185;51.854;6.622;2022-12-18T06:49:38;38.45;;;16.77;;
14203;SDS011;7185;51.854;6.622;2022-12-18T06:52:10;36.90;;;17.17;;
14203;SDS011;7185;51.854;6.622;2022-12-18T06:54:41;38.42;;;17.20;;
14203;SDS011;7185;51.854;6.622;2022-12-18T06:57:13;35.28;;;16.42;;
14203;SDS011;7185;51.854;6.622;2022-12-18T06:59:44;40.25;;;17.27;;
14203;SDS011;7185;51.854;6.622;2022-12-18T07:02:16;36.63;;;16.52;;
14203;SDS011;7185;51.854;6.622;2022-12-18T07:04:51;40.35;;;15.50;;
14203;SDS011;7185;51.854;6.622;2022-12-18T07:07:23;35.92;;;15.90;;
14203;SDS011;7185;51.854;6.622;2022-12-18T07:09:55;36.08;;;16.05;;
14203;SDS011;7185;51.854;6.622;2022-12-18T07:12:26;39.15;;;16.05;;
14203;SDS011;7185;51.854;6.622;2022-12-18T07:14:58;33.70;;;16.27;;
14203;SDS011;7185;51.854;6.622;2022-12-18T07:17:29;38.45;;;16.58;;
14203;SDS011;7185;51.854;6.622;2022-12-18T07:20:02;34.65;;;16.40;;
14203;SDS011;7185;51.854;6.622;2022-12-18T07:22:34;35.05;;;16.75;;
14203;SDS011;7185;51.854;6.622;2022-12-18T07:25:06;40.47;;;17.33;;
14203;SDS011;7185;51.854;6.622;2022-12-18T07:27:38;38.90;;;16.05;;
14203;SDS011;7185;51.854;6.622;2022-12-18T07:30:10;36.53;;;17.13;;
14203;SDS011;7185;51.854;6.622;2022-12-18T07:32:42;36.70;;;15.15;;
14203;SDS011;7185;51.854;6.622;2022-12-18T07:35:15;35.83;;;16.52;;
14203;SDS011;7185;51.854;6.622;2022-12-18T07:37:46;35.65;;;15.88;;
14203;SDS011;7185;51.854;6.622;2022-12-18T07:40:18;34.97;;;16.13;;
14203;SDS011;7185;51.854;6.622;2022-12-18T07:42:49;37.58;;;15.70;;
14203;SDS011;7185;51.854;6.622;2022-12-18T07:45:21;38.55;;;16.17;;
14203;SDS011;7185;51.854;6.622;2022-12-18T07:47:53;36.17;;;15.75;;
14203;SDS011;7185;51.854;6.622;2022-12-18T07:50:25;34.78;;;15.55;;
14203;SDS011;7185;51.854;6.622;2022-12-18T07:52:57;35.58;;;15.57;;
14203;SDS011;7185;51.854;6.622;2022-12-18T07:55:33;40.33;;;16.85;;
14203;SDS011;7185;51.854;6.622;2022-12-18T07:58:05;35.03;;;15.63;;
14203;SDS011;7185;51.854;6.622;2022-12-18T08:00:37;34.05;;;15.52;;
14203;SDS011;7185;51.854;6.622;2022-12-18T08:03:08;33.25;;;15.45;;
14203;SDS011;7185;51.854;6.622;2022-12-18T08:05:41;43.17;;;16.00;;
14203;SDS011;7185;51.854;6.622;2022-12-18T08:08:13;39.92;;;17.63;;
14203;SDS011;7185;51.854;6.622;2022-12-18T08:10:44;36.42;;;16.33;;
14203;SDS011;7185;51.854;6.622;2022-12-18T08:13:17;33.30;;;15.77;;
14203;SDS011;7185;51.854;6.622;2022-12-18T08:15:54;34.47;;;14.35;;
14203;SDS011;7185;51.854;6.622;2022-12-18T08:18:27;33.63;;;15.02;;
14203;SDS011;7185;51.854;6.622;2022-12-18T08:21:08;31.30;;;13.77;;
14203;SDS011;7185;51.854;6.622;2022-12-18T08:23:40;34.80;;;15.43;;
14203;SDS011;7185;51.854;6.622;2022-12-18T08:26:12;35.83;;;16.25;;
14203;SDS011;7185;51.854;6.622;2022-12-18T08:28:45;35.92;;;14.52;;
14203;SDS011;7185;51.854;6.622;2022-12-18T08:31:17;32.97;;;15.82;;
14203;SDS011;7185;51.854;6.622;2022-12-18T08:33:49;35.60;;;15.73;;
14203;SDS011;7185;51.854;6.622;2022-12-18T08:36:22;36.97;;;15.43;;
14203;SDS011;7185;51.854;6.622;2022-12-18T08:38:54;33.70;;;13.27;;
14203;SDS011;7185;51.854;6.622;2022-12-18T08:41:27;33.35;;;14.90;;
14203;SDS011;7185;51.854;6.622;2022-12-18T08:43:59;36.17;;;14.73;;
14203;SDS011;7185;51.854;6.622;2022-12-18T08:46:48;36.88;;;15.07;;
14203;SDS011;7185;51.854;6.622;2022-12-18T08:49:20;38.75;;;15.80;;
14203;SDS011;7185;51.854;6.622;2022-12-18T08:51:55;34.40;;;15.55;;
14203;SDS011;7185;51.854;6.622;2022-12-18T08:54:27;31.08;;;14.45;;
14203;SDS011;7185;51.854;6.622;2022-12-18T08:56:58;34.83;;;14.65;;
14203;SDS011;7185;51.854;6.622;2022-12-18T08:59:30;23.77;;;11.70;;
14203;SDS011;7185;51.854;6.622;2022-12-18T09:02:01;24.33;;;12.68;;
14203;SDS011;7185;51.854;6.622;2022-12-18T09:04:33;28.08;;;11.65;;
14203;SDS011;7185;51.854;6.622;2022-12-18T09:07:06;28.10;;;12.43;;
14203;SDS011;7185;51.854;6.622;2022-12-18T09:09:38;26.42;;;10.75;;
14203;SDS011;7185;51.854;6.622;2022-12-18T09:12:09;23.05;;;10.88;;
14203;SDS011;7185;51.854;6.622;2022-12-18T09:14:41;41.30;;;15.45;;
14203;SDS011;7185;51.854;6.622;2022-12-18T09:17:12;31.42;;;14.48;;
14203;SDS011;7185;51.854;6.622;2022-12-18T09:19:44;28.70;;;12.68;;
14203;SDS011;7185;51.854;6.622;2022-12-18T09:22:17;25.55;;;11.80;;
14203;SDS011;7185;51.854;6.622;2022-12-18T09:24:48;34.25;;;15.45;;
14203;SDS011;7185;51.854;6.622;2022-12-18T09:27:20;25.98;;;11.93;;
14203;SDS011;7185;51.854;6.622;2022-12-18T09:29:51;21.27;;;11.13;;
14203;SDS011;7185;51.854;6.622;2022-12-18T09:32:23;20.80;;;10.30;;
14203;SDS011;7185;51.854;6.622;2022-12-18T09:34:54;20.45;;;10.25;;
14203;SDS011;7185;51.854;6.622;2022-12-18T09:37:27;18.85;;;10.75;;
14203;SDS011;7185;51.854;6.622;2022-12-18T09:39:59;21.80;;;10.25;;
14203;SDS011;7185;51.854;6.622;2022-12-18T09:42:30;18.90;;;9.73;;
14203;SDS011;7185;51.854;6.622;2022-12-18T09:45:02;17.73;;;9.88;;
14203;SDS011;7185;51.854;6.622;2022-12-18T09:47:35;19.95;;;9.70;;
14203;SDS011;7185;51.854;6.622;2022-12-18T09:50:15;18.95;;;9.23;;
14203;SDS011;7185;51.854;6.622;2022-12-18T09:52:56;18.13;;;9.40;;
14203;SDS011;7185;51.854;6.622;2022-12-18T09:58:05;18.60;;;9.70;;
14203;SDS011;7185;51.854;6.622;2022-12-18T10:00:43;20.25;;;10.48;;
14203;SDS011;7185;51.854;6.622;2022-12-18T10:03:15;20.58;;;9.70;;
14203;SDS011;7185;51.854;6.622;2022-12-18T10:05:50;19.45;;;10.10;;
14203;SDS011;7185;51.854;6.622;2022-12-18T10:08:32;18.42;;;9.50;;
14203;SDS011;7185;51.854;6.622;2022-12-18T10:11:21;17.70;;;9.40;;
14203;SDS011;7185;51.854;6.622;2022-12-18T10:14:06;15.82;;;8.77;;
14203;SDS011;7185;51.854;6.622;2022-12-18T10:16:47;19.50;;;8.65;;
14203;SDS011;7185;51.854;6.622;2022-12-18T10:19:39;16.83;;;8.77;;
14203;SDS011;7185;51.854;6.622;2022-12-18T10:22:22;17.13;;;8.85;;
14203;SDS011;7185;51.854;6.622;2022-12-18T10:25:12;14.98;;;8.40;;
14203;SDS011;7185;51.854;6.622;2022-12-18T10:27:51;18.80;;;9.07;;
14203;SDS011;7185;51.854;6.622;2022-12-18T10:30:24;18.50;;;9.05;;
14203;SDS011;7185;51.854;6.622;2022-12-18T10:33:00;17.05;;;8.70;;
14203;SDS011;7185;51.854;6.622;2022-12-18T10:36:09;22.30;;;8.73;;
14203;SDS011;7185;51.854;6.622;2022-12-18T10:38:35;18.35;;;9.18;;
14203;SDS011;7185;51.854;6.622;2022-12-18T10:41:22;17.27;;;8.85;;
14203;SDS011;7185;51.854;6.622;2022-12-18T10:44:14;18.70;;;8.43;;
14203;SDS011;7185;51.854;6.622;2022-12-18T10:46:48;18.67;;;9.02;;
14203;SDS011;7185;51.854;6.622;2022-12-18T10:49:22;17.10;;;9.43;;
14203;SDS011;7185;51.854;6.622;2022-12-18T10:52:07;16.75;;;8.90;;
14203;SDS011;7185;51.854;6.622;2022-12-18T10:54:47;16.77;;;8.70;;
14203;SDS011;7185;51.854;6.622;2022-12-18T10:57:33;18.33;;;9.20;;
14203;SDS011;7185;51.854;6.622;2022-12-18T11:00:21;20.77;;;9.32;;
14203;SDS011;7185;51.854;6.622;2022-12-18T11:02:57;16.42;;;8.05;;
14203;SDS011;7185;51.854;6.622;2022-12-18T11:05:30;17.88;;;8.93;;
14203;SDS011;7185;51.854;6.622;2022-12-18T11:08:03;16.35;;;8.60;;
14203;SDS011;7185;51.854;6.622;2022-12-18T11:11:15;15.70;;;8.40;;
14203;SDS011;7185;51.854;6.622;2022-12-18T11:13:47;17.85;;;9.05;;
14203;SDS011;7185;51.854;6.622;2022-12-18T11:16:28;13.52;;;7.88;;
14203;SDS011;7185;51.854;6.622;2022-12-18T11:19:13;17.38;;;9.00;;
14203;SDS011;7185;51.854;6.622;2022-12-18T11:21:57;17.40;;;8.50;;
14203;SDS011;7185;51.854;6.622;2022-12-18T11:24:30;16.17;;;9.05;;
14203;SDS011;7185;51.854;6.622;2022-12-18T11:27:05;18.88;;;9.70;;
14203;SDS011;7185;51.854;6.622;2022-12-18T11:29:49;18.00;;;8.57;;
14203;SDS011;7185;51.854;6.622;2022-12-18T11:32:27;20.30;;;9.27;;
14203;SDS011;7185;51.854;6.622;2022-12-18T11:35:10;17.17;;;9.82;;
14203;SDS011;7185;51.854;6.622;2022-12-18T11:37:47;20.98;;;10.52;;
14203;SDS011;7185;51.854;6.622;2022-12-18T11:40:22;15.80;;;8.63;;
14203;SDS011;7185;51.854;6.622;2022-12-18T11:43:02;19.23;;;9.00;;
14203;SDS011;7185;51.854;6.622;2022-12-18T11:45:43;19.05;;;8.90;;
14203;SDS011;7185;51.854;6.622;2022-12-18T11:48:22;20.50;;;9.23;;
14203;SDS011;7185;51.854;6.622;2022-12-18T11:50:58;17.30;;;9.20;;
14203;SDS011;7185;51.854;6.622;2022-12-18T11:53:33;19.20;;;10.10;;
14203;SDS011;7185;51.854;6.622;2022-12-18T11:56:14;16.55;;;8.40;;
14203;SDS011;7185;51.854;6.622;2022-12-18T11:58:59;17.52;;;9.10;;
14203;SDS011;7185;51.854;6.622;2022-12-18T12:01:45;17.38;;;8.77;;
14203;SDS011;7185;51.854;6.622;2022-12-18T12:04:34;19.92;;;8.88;;
14203;SDS011;7185;51.854;6.622;2022-12-18T12:07:19;18.13;;;9.38;;
14203;SDS011;7185;51.854;6.622;2022-12-18T12:10:05;17.58;;;8.98;;
14203;SDS011;7185;51.854;6.622;2022-12-18T12:12:51;16.83;;;8.55;;
14203;SDS011;7185;51.854;6.622;2022-12-18T12:18:16;19.70;;;9.02;;
14203;SDS011;7185;51.854;6.622;2022-12-18T12:20:59;21.75;;;10.45;;
14203;SDS011;7185;51.854;6.622;2022-12-18T12:23:39;18.10;;;10.00;;
14203;SDS011;7185;51.854;6.622;2022-12-18T12:26:17;18.23;;;10.07;;
14203;SDS011;7185;51.854;6.622;2022-12-18T12:28:54;18.90;;;10.05;;
14203;SDS011;7185;51.854;6.622;2022-12-18T12:31:46;18.33;;;9.82;;
14203;SDS011;7185;51.854;6.622;2022-12-18T12:34:31;18.08;;;9.90;;
14203;SDS011;7185;51.854;6.622;2022-12-18T12:37:15;16.15;;;9.00;;
14203;SDS011;7185;51.854;6.622;2022-12-18T12:39:56;18.42;;;10.13;;
14203;SDS011;7185;51.854;6.622;2022-12-18T12:42:30;18.45;;;9.30;;
14203;SDS011;7185;51.854;6.622;2022-12-18T12:45:26;17.55;;;9.75;;
14203;SDS011;7185;51.854;6.622;2022-12-18T12:48:04;20.60;;;10.02;;
14203;SDS011;7185;51.854;6.622;2022-12-18T12:50:46;17.77;;;9.57;;
14203;SDS011;7185;51.854;6.622;2022-12-18T12:53:22;19.77;;;9.95;;
14203;SDS011;7185;51.854;6.622;2022-12-18T12:55:58;16.38;;;9.10;;
14203;SDS011;7185;51.854;6.622;2022-12-18T12:58:31;18.67;;;9.82;;
14203;SDS011;7185;51.854;6.622;2022-12-18T13:01:09;16.80;;;9.90;;
14203;SDS011;7185;51.854;6.622;2022-12-18T13:03:50;16.00;;;9.05;;
14203;SDS011;7185;51.854;6.622;2022-12-18T13:06:32;17.33;;;9.07;;
14203;SDS011;7185;51.854;6.622;2022-12-18T13:09:11;18.23;;;9.23;;
14203;SDS011;7185;51.854;6.622;2022-12-18T13:11:43;18.23;;;9.23;;
14203;SDS011;7185;51.854;6.622;2022-12-18T13:14:37;18.95;;;9.00;;
14203;SDS011;7185;51.854;6.622;2022-12-18T13:17:24;26.65;;;12.43;;
14203;SDS011;7185;51.854;6.622;2022-12-18T13:20:04;20.95;;;9.65;;
14203;SDS011;7185;51.854;6.622;2022-12-18T13:22:40;24.83;;;11.65;;
14203;SDS011;7185;51.854;6.622;2022-12-18T13:25:28;21.40;;;10.40;;
14203;SDS011;7185;51.854;6.622;2022-12-18T13:28:08;17.48;;;9.75;;
14203;SDS011;7185;51.854;6.622;2022-12-18T13:33:39;17.17;;;8.88;;
14203;SDS011;7185;51.854;6.622;2022-12-18T13:36:23;18.55;;;9.95;;
14203;SDS011;7185;51.854;6.622;2022-12-18T13:45:43;15.32;;;8.30;;
14203;SDS011;7185;51.854;6.622;2022-12-18T13:48:18;22.45;;;10.60;;
14203;SDS011;7185;51.854;6.622;2022-12-18T13:51:12;16.95;;;8.43;;
14203;SDS011;7185;51.854;6.622;2022-12-18T13:58:01;16.90;;;9.27;;
14203;SDS011;7185;51.854;6.622;2022-12-18T14:00:23;17.27;;;8.73;;
14203;SDS011;7185;51.854;6.622;2022-12-18T14:03:32;19.58;;;9.20;;
14203;SDS011;7185;51.854;6.622;2022-12-18T14:06:14;15.65;;;8.60;;
14203;SDS011;7185;51.854;6.622;2022-12-18T14:09:01;17.25;;;9.02;;
14203;SDS011;7185;51.854;6.622;2022-12-18T14:11:39;19.48;;;9.75;;
14203;SDS011;7185;51.854;6.622;2022-12-18T14:14:21;18.17;;;9.05;;
14203;SDS011;7185;51.854;6.622;2022-12-18T14:16:57;17.73;;;9.50;;
14203;SDS011;7185;51.854;6.622;2022-12-18T14:22:36;17.35;;;9.30;;
14203;SDS011;7185;51.854;6.622;2022-12-18T14:28:15;16.73;;;8.65;;
14203;SDS011;7185;51.854;6.622;2022-12-18T14:30:48;19.50;;;9.57;;
14203;SDS011;7185;51.854;6.622;2022-12-18T14:33:21;18.35;;;10.68;;
14203;SDS011;7185;51.854;6.622;2022-12-18T14:35:56;19.40;;;10.15;;
14203;SDS011;7185;51.854;6.622;2022-12-18T14:38:31;21.45;;;10.43;;
14203;SDS011;7185;51.854;6.622;2022-12-18T14:41:08;16.95;;;9.02;;
14203;SDS011;7185;51.854;6.622;2022-12-18T14:43:45;19.08;;;9.43;;
14203;SDS011;7185;51.854;6.622;2022-12-18T14:46:28;16.98;;;9.55;;
14203;SDS011;7185;51.854;6.622;2022-12-18T14:49:04;20.30;;;10.85;;
14203;SDS011;7185;51.854;6.622;2022-12-18T14:51:49;19.05;;;10.73;;
14203;SDS011;7185;51.854;6.622;2022-12-18T14:54:24;16.30;;;9.23;;
14203;SDS011;7185;51.854;6.622;2022-12-18T14:56:58;18.17;;;9.02;;
14203;SDS011;7185;51.854;6.622;2022-12-18T14:59:33;21.08;;;9.85;;
14203;SDS011;7185;51.854;6.622;2022-12-18T15:02:08;16.63;;;9.00;;
14203;SDS011;7185;51.854;6.622;2022-12-18T15:04:47;19.27;;;9.85;;
14203;SDS011;7185;51.854;6.622;2022-12-18T15:07:20;20.10;;;10.40;;
14203;SDS011;7185;51.854;6.622;2022-12-18T15:10:03;15.98;;;9.73;;
14203;SDS011;7185;51.854;6.622;2022-12-18T15:12:42;18.75;;;10.70;;
14203;SDS011;7185;51.854;6.622;2022-12-18T15:18:20;17.92;;;9.25;;
14203;SDS011;7185;51.854;6.622;2022-12-18T15:20:55;17.23;;;9.60;;
14203;SDS011;7185;51.854;6.622;2022-12-18T15:23:36;20.48;;;10.68;;
14203;SDS011;7185;51.854;6.622;2022-12-18T15:26:16;17.40;;;9.60;;
14203;SDS011;7185;51.854;6.622;2022-12-18T15:28:50;21.63;;;10.20;;
14203;SDS011;7185;51.854;6.622;2022-12-18T15:31:29;20.17;;;9.77;;
14203;SDS011;7185;51.854;6.622;2022-12-18T15:36:50;19.77;;;10.30;;
14203;SDS011;7185;51.854;6.622;2022-12-18T15:39:22;21.13;;;10.88;;
14203;SDS011;7185;51.854;6.622;2022-12-18T15:41:54;21.27;;;11.00;;
14203;SDS011;7185;51.854;6.622;2022-12-18T15:44:43;22.13;;;10.00;;
14203;SDS011;7185;51.854;6.622;2022-12-18T15:47:16;20.40;;;11.05;;
14203;SDS011;7185;51.854;6.622;2022-12-18T15:49:47;23.80;;;12.48;;
14203;SDS011;7185;51.854;6.622;2022-12-18T15:52:19;23.95;;;11.85;;
14203;SDS011;7185;51.854;6.622;2022-12-18T15:54:55;22.40;;;12.10;;
14203;SDS011;7185;51.854;6.622;2022-12-18T15:57:45;22.25;;;11.70;;
14203;SDS011;7185;51.854;6.622;2022-12-18T16:00:16;22.90;;;12.35;;